Wanneroo, Western Australia

9:21 AM AWST on August 04, 2015 (GMT +0800)
Ocean Reef | | Change Station
CLOSE
Current Station
Personal Weather Station
Location: Ocean Reef, Western Australia
Elevation: 90 ft
Nearby Weather Stations

Elev 90 ft 31.74 °S, 115.73 °E | Updated 7 seconds ago

Clear
Clear
54.7 °F
Feels Like 54.7 °F
N
8.0
Wind Variable Wind from ESE
Gusts 8.0 mph

Today
High -- | Low -- °F
--% Chance of Precip.
Yesterday
High -- | Low -- °F
Precip. -- in
7:03 AM 5:43 PM
Waning Gibbous, 82% visible
Pressure 30.51 in
Visibility -9999.0 miles
Clouds
Dew Point 46 °F
Humidity 73%
Rainfall 0.00 in
Snow Depth Not available.
UV 0.8 out of 12
Pollen Not available.
Air Quality Not available.
Flu Activity Not available.
METAR YPPH 040100Z 08012KT CAVOK 12/06 Q1033 NOSIG

More Conditions Fewer Conditions

Pressure 30.51 in
Visibility -9999.0 miles
Clouds
Dew Point 46 °F
Humidity 73%
Rainfall 0.00 in
Snow Depth Not available.
UV 0.8 out of 12
Pollen Not available.
Air Quality Not available.
Flu Activity Not available.
METAR YPPH 040100Z 08012KT CAVOK 12/06 Q1033 NOSIG

More Conditions Fewer Conditions

10-Day Weather Forecast

×

Almanac

Astronomy

Aug. 04, 2015 Rise Set
Actual Time
Civil Twilight
Nautical Twilight
Astronomical Twilight
Moon
Length of Visible Light
Length of Day
Tomorrow will be .
, % of the Moon is Illuminated

Today's Extremes

Country Highs Country Lows

Community

WunderPhotos

Upload Photos

1,843,814 photos uploaded!

WunderBlogs® & News

Nearby

Air Quality

  Air Quality AQ Index Pollutant
Not available.

Snow Depth

Station Depth Elevation

Earthquake Activity

City Distance Mag. Time & Date
Minimum magnitude displayed is 2.5.

Coastal Water Temperatures

Place Temperature

Stations

Nearby Weather Stations

Station Location Temp. Windchill Dew Point Humidity Wind Precip. Elev Updated Type